sensor_id;sensor_type;location;lat;lon;timestamp;pressure;altitude;pressure_sealevel;temperature;humidity
72896;BME280;61036;53.224;6.554;2023-12-04T00:00:01;101029.78;;;-0.58;100.00
72896;BME280;61036;53.224;6.554;2023-12-04T00:02:26;101021.75;;;-0.55;100.00
72896;BME280;61036;53.224;6.554;2023-12-04T00:04:52;101021.53;;;-0.46;100.00
72896;BME280;61036;53.224;6.554;2023-12-04T00:07:17;101011.84;;;-0.47;100.00
72896;BME280;61036;53.224;6.554;2023-12-04T00:09:42;101005.63;;;-0.46;100.00
72896;BME280;61036;53.224;6.554;2023-12-04T00:12:08;101001.34;;;-0.50;100.00
72896;BME280;61036;53.224;6.554;2023-12-04T00:14:33;101001.34;;;-0.50;100.00
72896;BME280;61036;53.224;6.554;2023-12-04T00:16:59;100999.09;;;-0.65;100.00
72896;BME280;61036;53.224;6.554;2023-12-04T00:19:24;100992.94;;;-0.66;100.00
72896;BME280;61036;53.224;6.554;2023-12-04T00:21:51;100991.75;;;-0.56;100.00
72896;BME280;61036;53.224;6.554;2023-12-04T00:24:16;100981.25;;;-0.59;100.00
72896;BME280;61036;53.224;6.554;2023-12-04T00:26:42;100969.38;;;-0.44;100.00
72896;BME280;61036;53.224;6.554;2023-12-04T00:29:07;100965.00;;;-0.45;100.00
72896;BME280;61036;53.224;6.554;2023-12-04T00:31:33;100974.84;;;-0.50;100.00
72896;BME280;61036;53.224;6.554;2023-12-04T00:33:58;100968.84;;;-0.57;100.00
72896;BME280;61036;53.224;6.554;2023-12-04T00:36:24;100968.19;;;-0.66;100.00
72896;BME280;61036;53.224;6.554;2023-12-04T00:38:49;100961.75;;;-0.56;100.00
72896;BME280;61036;53.224;6.554;2023-12-04T00:41:15;100958.88;;;-0.49;100.00
72896;BME280;61036;53.224;6.554;2023-12-04T00:43:40;100957.13;;;-0.48;100.00
72896;BME280;61036;53.224;6.554;2023-12-04T00:46:06;100953.81;;;-0.56;100.00
72896;BME280;61036;53.224;6.554;2023-12-04T00:48:31;100953.06;;;-0.61;100.00
72896;BME280;61036;53.224;6.554;2023-12-04T00:50:57;100952.19;;;-0.62;100.00
72896;BME280;61036;53.224;6.554;2023-12-04T00:53:23;100947.84;;;-0.64;100.00
72896;BME280;61036;53.224;6.554;2023-12-04T00:55:48;100946.06;;;-0.64;100.00
72896;BME280;61036;53.224;6.554;2023-12-04T00:58:14;100940.94;;;-0.70;100.00
72896;BME280;61036;53.224;6.554;2023-12-04T01:00:39;100934.00;;;-0.74;100.00
72896;BME280;61036;53.224;6.554;2023-12-04T01:03:05;100935.72;;;-0.73;100.00
72896;BME280;61036;53.224;6.554;2023-12-04T01:05:30;100929.41;;;-0.67;100.00
72896;BME280;61036;53.224;6.554;2023-12-04T01:07:56;100921.38;;;-0.64;100.00
72896;BME280;61036;53.224;6.554;2023-12-04T01:10:21;100911.63;;;-0.62;100.00
72896;BME280;61036;53.224;6.554;2023-12-04T01:12:47;100914.25;;;-0.62;100.00
72896;BME280;61036;53.224;6.554;2023-12-04T01:15:12;100916.91;;;-0.62;100.00
72896;BME280;61036;53.224;6.554;2023-12-04T01:17:38;100918.78;;;-0.66;100.00
72896;BME280;61036;53.224;6.554;2023-12-04T01:20:04;100914.28;;;-0.64;100.00
72896;BME280;61036;53.224;6.554;2023-12-04T01:22:30;100906.31;;;-0.62;100.00
72896;BME280;61036;53.224;6.554;2023-12-04T01:24:55;100906.59;;;-0.73;100.00
72896;BME280;61036;53.224;6.554;2023-12-04T01:27:21;100905.63;;;-0.69;100.00
72896;BME280;61036;53.224;6.554;2023-12-04T01:29:46;100897.69;;;-0.69;100.00
72896;BME280;61036;53.224;6.554;2023-12-04T01:32:12;100896.00;;;-0.73;100.00
72896;BME280;61036;53.224;6.554;2023-12-04T01:34:37;100899.41;;;-0.68;100.00
72896;BME280;61036;53.224;6.554;2023-12-04T01:37:03;100897.28;;;-0.55;100.00
72896;BME280;61036;53.224;6.554;2023-12-04T01:39:28;100888.75;;;-0.66;100.00
72896;BME280;61036;53.224;6.554;2023-12-04T01:41:54;100882.41;;;-0.61;100.00
72896;BME280;61036;53.224;6.554;2023-12-04T01:44:19;100876.19;;;-0.58;100.00
72896;BME280;61036;53.224;6.554;2023-12-04T01:46:46;100885.25;;;-0.67;100.00
72896;BME280;61036;53.224;6.554;2023-12-04T01:49:12;100876.19;;;-0.58;100.00
72896;BME280;61036;53.224;6.554;2023-12-04T01:51:39;100878.03;;;-0.62;100.00
72896;BME280;61036;53.224;6.554;2023-12-04T01:54:06;100872.59;;;-0.57;100.00
72896;BME280;61036;53.224;6.554;2023-12-04T01:56:33;100869.94;;;-0.57;100.00
72896;BME280;61036;53.224;6.554;2023-12-04T01:58:59;100862.84;;;-0.55;100.00
72896;BME280;61036;53.224;6.554;2023-12-04T02:01:26;100861.88;;;-0.51;100.00
72896;BME280;61036;53.224;6.554;2023-12-04T02:03:53;100855.75;;;-0.55;100.00
72896;BME280;61036;53.224;6.554;2023-12-04T02:06:19;100854.31;;;-0.65;100.00
72896;BME280;61036;53.224;6.554;2023-12-04T02:08:46;100857.63;;;-0.58;100.00
72896;BME280;61036;53.224;6.554;2023-12-04T02:11:12;100852.59;;;-0.67;100.00
72896;BME280;61036;53.224;6.554;2023-12-04T02:13:38;100858.38;;;-0.53;100.00
72896;BME280;61036;53.224;6.554;2023-12-04T02:16:05;100862.81;;;-0.54;100.00
72896;BME280;61036;53.224;6.554;2023-12-04T02:18:34;100856.88;;;-0.62;100.00
72896;BME280;61036;53.224;6.554;2023-12-04T02:21:01;100848.75;;;-0.56;100.00
72896;BME280;61036;53.224;6.554;2023-12-04T02:23:27;100842.56;;;-0.56;100.00
72896;BME280;61036;53.224;6.554;2023-12-04T02:25:57;100846.09;;;-0.56;100.00
72896;BME280;61036;53.224;6.554;2023-12-04T02:28:25;100835.00;;;-0.39;100.00
72896;BME280;61036;53.224;6.554;2023-12-04T02:30:52;100835.28;;;-0.48;100.00
72896;BME280;61036;53.224;6.554;2023-12-04T02:33:19;100837.00;;;-0.47;100.00
72896;BME280;61036;53.224;6.554;2023-12-04T02:35:50;100825.66;;;-0.51;100.00
72896;BME280;61036;53.224;6.554;2023-12-04T02:38:17;100828.81;;;-0.39;100.00
72896;BME280;61036;53.224;6.554;2023-12-04T02:40:43;100830.94;;;-0.51;100.00
72896;BME280;61036;53.224;6.554;2023-12-04T02:43:09;100819.13;;;-0.39;100.00
72896;BME280;61036;53.224;6.554;2023-12-04T02:45:34;100823.00;;;-0.51;100.00
72896;BME280;61036;53.224;6.554;2023-12-04T02:48:00;100814.91;;;-0.46;100.00
72896;BME280;61036;53.224;6.554;2023-12-04T02:50:25;100803.13;;;-0.36;100.00
72896;BME280;61036;53.224;6.554;2023-12-04T02:52:50;100807.50;;;-0.35;100.00
72896;BME280;61036;53.224;6.554;2023-12-04T02:55:16;100803.97;;;-0.35;100.00
72896;BME280;61036;53.224;6.554;2023-12-04T02:57:42;100797.66;;;-0.31;100.00
72896;BME280;61036;53.224;6.554;2023-12-04T03:00:07;100802.03;;;-0.30;100.00
72896;BME280;61036;53.224;6.554;2023-12-04T03:02:33;100804.84;;;-0.35;100.00
72896;BME280;61036;53.224;6.554;2023-12-04T03:04:59;100794.91;;;-0.28;100.00
72896;BME280;61036;53.224;6.554;2023-12-04T03:07:24;100789.44;;;-0.22;100.00
72896;BME280;61036;53.224;6.554;2023-12-04T03:09:51;100792.09;;;-0.22;100.00
72896;BME280;61036;53.224;6.554;2023-12-04T03:12:17;100797.66;;;-0.31;100.00
72896;BME280;61036;53.224;6.554;2023-12-04T03:14:42;100779.47;;;-0.14;100.00
72896;BME280;61036;53.224;6.554;2023-12-04T03:17:08;100778.59;;;-0.14;100.00
72896;BME280;61036;53.224;6.554;2023-12-04T03:19:33;100783.47;;;-0.29;100.00
72896;BME280;61036;53.224;6.554;2023-12-04T03:22:00;100789.59;;;-0.27;100.00
72896;BME280;61036;53.224;6.554;2023-12-04T03:24:25;100778.91;;;-0.24;100.00
72896;BME280;61036;53.224;6.554;2023-12-04T03:26:51;100775.50;;;-0.29;100.00
72896;BME280;61036;53.224;6.554;2023-12-04T03:29:16;100770.94;;;-0.24;100.00
72896;BME280;61036;53.224;6.554;2023-12-04T03:31:42;100780.59;;;-0.21;100.00
72896;BME280;61036;53.224;6.554;2023-12-04T03:34:07;100781.66;;;-0.27;100.00
72896;BME280;61036;53.224;6.554;2023-12-04T03:36:32;100768.28;;;-0.24;100.00
72896;BME280;61036;53.224;6.554;2023-12-04T03:38:58;100778.78;;;-0.20;100.00
72896;BME280;61036;53.224;6.554;2023-12-04T03:41:23;100770.13;;;-0.26;100.00
72896;BME280;61036;53.224;6.554;2023-12-04T03:43:49;100765.66;;;-0.24;100.00
72896;BME280;61036;53.224;6.554;2023-12-04T03:46:14;100758.41;;;-0.18;100.00
72896;BME280;61036;53.224;6.554;2023-12-04T03:48:40;100757.31;;;-0.11;100.00
72896;BME280;61036;53.224;6.554;2023-12-04T03:51:06;100758.59;;;-0.25;100.00
72896;BME280;61036;53.224;6.554;2023-12-04T03:53:31;100757.78;;;-0.27;100.00
72896;BME280;61036;53.224;6.554;2023-12-04T03:55:58;100744.38;;;-0.22;100.00
72896;BME280;61036;53.224;6.554;2023-12-04T03:58:24;100754.25;;;-0.27;100.00
72896;BME280;61036;53.224;6.554;2023-12-04T04:00:50;100749.66;;;-0.20;100.00
72896;BME280;61036;53.224;6.554;2023-12-04T04:03:15;100747.19;;;-0.27;100.00
72896;BME280;61036;53.224;6.554;2023-12-04T04:05:41;100744.34;;;-0.20;100.00
72896;BME280;61036;53.224;6.554;2023-12-04T04:08:06;100732.31;;;-0.04;100.00
72896;BME280;61036;53.224;6.554;2023-12-04T04:10:33;100727.66;;;0.03;100.00
72896;BME280;61036;53.224;6.554;2023-12-04T04:12:59;100725.59;;;-0.14;100.00
72896;BME280;61036;53.224;6.554;2023-12-04T04:15:25;100718.72;;;-0.20;100.00
72896;BME280;61036;53.224;6.554;2023-12-04T04:17:51;100731.03;;;-0.19;100.00
72896;BME280;61036;53.224;6.554;2023-12-04T04:20:17;100728.81;;;-0.05;100.00
72896;BME280;61036;53.224;6.554;2023-12-04T04:22:42;100740.56;;;-0.13;100.00
72896;BME280;61036;53.224;6.554;2023-12-04T04:25:08;100751.44;;;-0.21;100.00
72896;BME280;61036;53.224;6.554;2023-12-04T04:27:37;100738.84;;;-0.14;100.00
72896;BME280;61036;53.224;6.554;2023-12-04T04:30:03;100731.19;;;-0.24;100.00
72896;BME280;61036;53.224;6.554;2023-12-04T04:32:29;100729.44;;;-0.25;100.00
72896;BME280;61036;53.224;6.554;2023-12-04T04:34:55;100724.72;;;-0.15;100.00
72896;BME280;61036;53.224;6.554;2023-12-04T04:37:20;100722.00;;;-0.13;100.00
72896;BME280;61036;53.224;6.554;2023-12-04T04:39:46;100716.72;;;-0.13;100.00
72896;BME280;61036;53.224;6.554;2023-12-04T04:42:11;100716.31;;;-0.01;100.00
72896;BME280;61036;53.224;6.554;2023-12-04T04:44:37;100721.81;;;-0.07;100.00
72896;BME280;61036;53.224;6.554;2023-12-04T04:47:02;100720.34;;;-0.16;100.00
72896;BME280;61036;53.224;6.554;2023-12-04T04:49:28;100717.56;;;-0.13;100.00
72896;BME280;61036;53.224;6.554;2023-12-04T04:51:53;100712.44;;;-0.17;100.00
72896;BME280;61036;53.224;6.554;2023-12-04T04:54:19;100710.44;;;-0.11;100.00
72896;BME280;61036;53.224;6.554;2023-12-04T04:56:44;100706.19;;;-0.15;100.00
72896;BME280;61036;53.224;6.554;2023-12-04T04:59:10;100705.16;;;-0.11;100.00
72896;BME280;61036;53.224;6.554;2023-12-04T05:01:36;100697.19;;;-0.11;100.00
72896;BME280;61036;53.224;6.554;2023-12-04T05:04:02;100695.72;;;-0.19;100.00
72896;BME280;61036;53.224;6.554;2023-12-04T05:06:27;100700.69;;;-0.09;100.00
72896;BME280;61036;53.224;6.554;2023-12-04T05:08:53;100696.28;;;-0.10;100.00
72896;BME280;61036;53.224;6.554;2023-12-04T05:11:18;100703.22;;;-0.06;100.00
72896;BME280;61036;53.224;6.554;2023-12-04T05:13:45;100702.34;;;-0.06;100.00
72896;BME280;61036;53.224;6.554;2023-12-04T05:16:10;100702.44;;;-0.09;100.00
72896;BME280;61036;53.224;6.554;2023-12-04T05:18:36;100694.69;;;-0.15;100.00
72896;BME280;61036;53.224;6.554;2023-12-04T05:21:01;100687.53;;;-0.12;100.00
72896;BME280;61036;53.224;6.554;2023-12-04T05:23:28;100683.19;;;-0.14;100.00
72896;BME280;61036;53.224;6.554;2023-12-04T05:25:53;100675.28;;;-0.16;100.00
72896;BME280;61036;53.224;6.554;2023-12-04T05:28:19;100685.75;;;-0.11;100.00
72896;BME280;61036;53.224;6.554;2023-12-04T05:30:44;100676.97;;;-0.13;100.00
72896;BME280;61036;53.224;6.554;2023-12-04T05:33:09;100684.78;;;-0.09;100.00
72896;BME280;61036;53.224;6.554;2023-12-04T05:35:35;100684.19;;;-0.18;100.00
72896;BME280;61036;53.224;6.554;2023-12-04T05:38:02;100678.88;;;-0.18;100.00
72896;BME280;61036;53.224;6.554;2023-12-04T05:40:28;100673.47;;;-0.15;100.00
72896;BME280;61036;53.224;6.554;2023-12-04T05:42:53;100673.59;;;-0.18;100.00
72896;BME280;61036;53.224;6.554;2023-12-04T05:45:19;100672.59;;;-0.14;100.00
72896;BME280;61036;53.224;6.554;2023-12-04T05:47:44;100666.31;;;-0.12;100.00
72896;BME280;61036;53.224;6.554;2023-12-04T05:50:10;100671.72;;;-0.15;100.00
72896;BME280;61036;53.224;6.554;2023-12-04T05:52:35;100671.72;;;-0.15;100.00
72896;BME280;61036;53.224;6.554;2023-12-04T05:55:00;100673.38;;;-0.12;100.00
72896;BME280;61036;53.224;6.554;2023-12-04T05:57:26;100665.28;;;-0.08;100.00
72896;BME280;61036;53.224;6.554;2023-12-04T05:59:51;100671.34;;;-0.04;100.00
72896;BME280;61036;53.224;6.554;2023-12-04T06:02:17;100662.75;;;-0.11;100.00
72896;BME280;61036;53.224;6.554;2023-12-04T06:04:42;100665.28;;;-0.08;100.00
72896;BME280;61036;53.224;6.554;2023-12-04T06:07:08;100659.88;;;-0.05;100.00
72896;BME280;61036;53.224;6.554;2023-12-04T06:09:34;100665.28;;;-0.08;100.00
72896;BME280;61036;53.224;6.554;2023-12-04T06:12:02;100658.16;;;-0.06;100.00
72896;BME280;61036;53.224;6.554;2023-12-04T06:14:33;100651.22;;;-0.10;100.00
72896;BME280;61036;53.224;6.554;2023-12-04T06:16:59;100658.50;;;-0.16;100.00
72896;BME280;61036;53.224;6.554;2023-12-04T06:19:24;100646.84;;;-0.11;100.00
72896;BME280;61036;53.224;6.554;2023-12-04T06:21:50;100657.38;;;-0.09;100.00
72896;BME280;61036;53.224;6.554;2023-12-04T06:24:16;100657.22;;;-0.05;100.00
72896;BME280;61036;53.224;6.554;2023-12-04T06:26:41;100653.00;;;-0.10;100.00
72896;BME280;61036;53.224;6.554;2023-12-04T06:29:08;100651.19;;;-0.08;100.00
72896;BME280;61036;53.224;6.554;2023-12-04T06:31:34;100641.47;;;-0.09;100.00
72896;BME280;61036;53.224;6.554;2023-12-04T06:34:00;100641.19;;;0.00;100.00
72896;BME280;61036;53.224;6.554;2023-12-04T06:36:26;100638.44;;;0.03;100.00
72896;BME280;61036;53.224;6.554;2023-12-04T06:38:57;100634.19;;;-0.03;100.00
72896;BME280;61036;53.224;6.554;2023-12-04T06:41:24;100627.94;;;0.00;100.00
72896;BME280;61036;53.224;6.554;2023-12-04T06:43:50;100633.16;;;0.02;100.00
72896;BME280;61036;53.224;6.554;2023-12-04T06:46:16;100638.72;;;-0.06;100.00
72896;BME280;61036;53.224;6.554;2023-12-04T06:48:43;100638.94;;;-0.12;100.00
72896;BME280;61036;53.224;6.554;2023-12-04T06:51:08;100628.78;;;0.01;100.00
72896;BME280;61036;53.224;6.554;2023-12-04T06:53:34;100629.75;;;-0.02;100.00
72896;BME280;61036;53.224;6.554;2023-12-04T06:55:59;100632.41;;;-0.02;100.00
72896;BME280;61036;53.224;6.554;2023-12-04T06:58:25;100628.78;;;0.01;100.00
72896;BME280;61036;53.224;6.554;2023-12-04T07:00:50;100637.84;;;-0.07;100.00
72896;BME280;61036;53.224;6.554;2023-12-04T07:03:16;100637.09;;;-0.10;100.00
72896;BME280;61036;53.224;6.554;2023-12-04T07:05:41;100636.78;;;-0.01;100.00
72896;BME280;61036;53.224;6.554;2023-12-04T07:08:07;100635.16;;;-0.05;100.00
72896;BME280;61036;53.224;6.554;2023-12-04T07:10:32;100633.28;;;-0.02;100.00
72896;BME280;61036;53.224;6.554;2023-12-04T07:12:58;100635.16;;;-0.05;100.00
72896;BME280;61036;53.224;6.554;2023-12-04T07:15:24;100634.44;;;-0.10;100.00
72896;BME280;61036;53.224;6.554;2023-12-04T07:17:49;100636.28;;;-0.12;100.00
72896;BME280;61036;53.224;6.554;2023-12-04T07:20:14;100630.09;;;-0.11;100.00
72896;BME280;61036;53.224;6.554;2023-12-04T07:22:40;100630.84;;;-0.08;100.00
72896;BME280;61036;53.224;6.554;2023-12-04T07:25:06;100623.50;;;0.01;100.00
72896;BME280;61036;53.224;6.554;2023-12-04T07:27:32;100624.78;;;-0.11;100.00
72896;BME280;61036;53.224;6.554;2023-12-04T07:29:58;100615.78;;;-0.07;100.00
72896;BME280;61036;53.224;6.554;2023-12-04T07:32:25;100607.69;;;-0.03;100.00
72896;BME280;61036;53.224;6.554;2023-12-04T07:34:50;100615.78;;;-0.07;100.00
72896;BME280;61036;53.224;6.554;2023-12-04T07:37:16;100614.06;;;-0.08;100.00
72896;BME280;61036;53.224;6.554;2023-12-04T07:39:43;100616.41;;;0.01;100.00
72896;BME280;61036;53.224;6.554;2023-12-04T07:42:11;100606.63;;;0.03;100.00
72896;BME280;61036;53.224;6.554;2023-12-04T07:44:37;100620.06;;;-0.03;100.00
72896;BME280;61036;53.224;6.554;2023-12-04T07:47:03;100614.75;;;-0.03;100.00
72896;BME280;61036;53.224;6.554;2023-12-04T07:49:28;100608.44;;;0.01;100.00
72896;BME280;61036;53.224;6.554;2023-12-04T07:51:54;100612.03;;;0.00;100.00
72896;BME280;61036;53.224;6.554;2023-12-04T07:54:20;100618.22;;;-0.01;100.00
72896;BME280;61036;53.224;6.554;2023-12-04T07:56:47;100609.06;;;0.09;100.00
72896;BME280;61036;53.224;6.554;2023-12-04T07:59:13;100609.97;;;0.33;100.00
72896;BME280;61036;53.224;6.554;2023-12-04T08:01:38;100614.25;;;0.36;100.00
72896;BME280;61036;53.224;6.554;2023-12-04T08:04:04;100619.00;;;0.28;100.00
72896;BME280;61036;53.224;6.554;2023-12-04T08:06:30;100619.59;;;0.11;100.00
72896;BME280;61036;53.224;6.554;2023-12-04T08:08:56;100627.38;;;0.15;100.00
72896;BME280;61036;53.224;6.554;2023-12-04T08:11:22;100625.31;;;0.23;100.00
72896;BME280;61036;53.224;6.554;2023-12-04T08:13:47;100635.50;;;0.11;100.00
72896;BME280;61036;53.224;6.554;2023-12-04T08:16:14;100630.56;;;0.25;100.00
72896;BME280;61036;53.224;6.554;2023-12-04T08:18:45;100633.94;;;0.30;100.00
72896;BME280;61036;53.224;6.554;2023-12-04T08:21:11;100629.59;;;0.28;100.00
72896;BME280;61036;53.224;6.554;2023-12-04T08:23:37;100631.41;;;0.27;100.00
72896;BME280;61036;53.224;6.554;2023-12-04T08:26:03;100634.09;;;0.26;100.00
72896;BME280;61036;53.224;6.554;2023-12-04T08:28:29;100633.00;;;0.31;100.00
72896;BME280;61036;53.224;6.554;2023-12-04T08:30:54;100637.16;;;0.38;100.00
72896;BME280;61036;53.224;6.554;2023-12-04T08:33:20;100633.41;;;0.44;100.00
72896;BME280;61036;53.224;6.554;2023-12-04T08:35:46;100635.47;;;0.36;100.00
72896;BME280;61036;53.224;6.554;2023-12-04T08:38:11;100639.03;;;0.36;100.00
72896;BME280;61036;53.224;6.554;2023-12-04T08:40:37;100645.44;;;0.29;100.00
72896;BME280;61036;53.224;6.554;2023-12-04T08:43:02;100648.72;;;0.36;100.00
72896;BME280;61036;53.224;6.554;2023-12-04T08:45:29;100647.88;;;0.35;100.00
72896;BME280;61036;53.224;6.554;2023-12-04T08:47:55;100648.81;;;0.34;100.00
72896;BME280;61036;53.224;6.554;2023-12-04T08:50:20;100652.31;;;0.35;100.00
72896;BME280;61036;53.224;6.554;2023-12-04T08:52:46;100656.31;;;0.47;100.00
72896;BME280;61036;53.224;6.554;2023-12-04T08:55:11;100661.66;;;0.45;100.00
72896;BME280;61036;53.224;6.554;2023-12-04T08:57:37;100660.34;;;0.57;100.00
72896;BME280;61036;53.224;6.554;2023-12-04T09:00:03;100661.63;;;0.47;100.00
72896;BME280;61036;53.224;6.554;2023-12-04T09:02:29;100654.38;;;0.52;100.00
72896;BME280;61036;53.224;6.554;2023-12-04T09:04:56;100658.72;;;0.54;100.00
72896;BME280;61036;53.224;6.554;2023-12-04T09:07:21;100661.84;;;0.40;100.00
72896;BME280;61036;53.224;6.554;2023-12-04T09:09:46;100658.72;;;0.54;100.00
72896;BME280;61036;53.224;6.554;2023-12-04T09:12:12;100654.06;;;0.59;100.00
72896;BME280;61036;53.224;6.554;2023-12-04T09:14:37;100655.00;;;0.58;100.00
72896;BME280;61036;53.224;6.554;2023-12-04T09:17:03;100652.25;;;0.61;100.00
72896;BME280;61036;53.224;6.554;2023-12-04T09:19:29;100663.50;;;0.68;100.00
72896;BME280;61036;53.224;6.554;2023-12-04T09:21:54;100662.13;;;0.58;100.00
72896;BME280;61036;53.224;6.554;2023-12-04T09:24:20;100662.97;;;0.58;100.00
72896;BME280;61036;53.224;6.554;2023-12-04T09:26:46;100667.41;;;0.58;100.00
72896;BME280;61036;53.224;6.554;2023-12-04T09:29:12;100666.03;;;0.71;100.00
72896;BME280;61036;53.224;6.554;2023-12-04T09:31:38;100673.34;;;0.64;100.00
72896;BME280;61036;53.224;6.554;2023-12-04T09:34:03;100668.16;;;0.61;100.00
72896;BME280;61036;53.224;6.554;2023-12-04T09:36:28;100672.84;;;0.55;100.00
72896;BME280;61036;53.224;6.554;2023-12-04T09:38:54;100678.19;;;0.53;100.00
72896;BME280;61036;53.224;6.554;2023-12-04T09:41:20;100665.69;;;0.80;100.00
72896;BME280;61036;53.224;6.554;2023-12-04T09:43:47;100674.97;;;0.68;100.00
72896;BME280;61036;53.224;6.554;2023-12-04T09:46:14;100678.22;;;0.77;100.00
72896;BME280;61036;53.224;6.554;2023-12-04T09:48:41;100683.56;;;0.75;100.00
72896;BME280;61036;53.224;6.554;2023-12-04T09:51:08;100678.13;;;0.78;100.00
72896;BME280;61036;53.224;6.554;2023-12-04T09:53:35;100687.78;;;0.81;100.00
72896;BME280;61036;53.224;6.554;2023-12-04T09:56:02;100676.38;;;0.79;100.00
72896;BME280;61036;53.224;6.554;2023-12-04T09:58:29;100682.34;;;0.84;100.00
72896;BME280;61036;53.224;6.554;2023-12-04T10:00:56;100675.97;;;0.89;100.00
72896;BME280;61036;53.224;6.554;2023-12-04T10:03:22;100675.91;;;0.91;100.00
72896;BME280;61036;53.224;6.554;2023-12-04T10:05:48;100678.38;;;0.96;100.00
72896;BME280;61036;53.224;6.554;2023-12-04T10:08:14;100678.09;;;1.03;100.00
72896;BME280;61036;53.224;6.554;2023-12-04T10:10:39;100679.13;;;0.99;100.00
72896;BME280;61036;53.224;6.554;2023-12-04T10:13:05;100676.59;;;0.96;100.00
72896;BME280;61036;53.224;6.554;2023-12-04T10:15:32;100672.78;;;1.03;100.00
72896;BME280;61036;53.224;6.554;2023-12-04T10:17:57;100680.69;;;1.05;100.00
72896;BME280;61036;53.224;6.554;2023-12-04T10:20:23;100677.66;;;1.14;100.00
72896;BME280;61036;53.224;6.554;2023-12-04T10:23:00;100679.34;;;1.17;100.00
72896;BME280;61036;53.224;6.554;2023-12-04T10:25:28;100671.22;;;1.21;100.00
72896;BME280;61036;53.224;6.554;2023-12-04T10:28:07;100680.78;;;1.47;100.00
72896;BME280;61036;53.224;6.554;2023-12-04T10:30:33;100673.59;;;1.51;100.00
72896;BME280;61036;53.224;6.554;2023-12-04T10:33:04;100676.16;;;1.30;100.00
72896;BME280;61036;53.224;6.554;2023-12-04T10:35:34;100673.00;;;1.21;100.00
72896;BME280;61036;53.224;6.554;2023-12-04T10:38:03;100675.78;;;1.18;100.00
72896;BME280;61036;53.224;6.554;2023-12-04T10:40:31;100664.03;;;1.23;100.00
72896;BME280;61036;53.224;6.554;2023-12-04T10:43:23;100656.19;;;1.20;100.00
72896;BME280;61036;53.224;6.554;2023-12-04T10:45:50;100656.06;;;1.23;100.00
72896;BME280;61036;53.224;6.554;2023-12-04T10:48:18;100644.47;;;1.26;100.00
72896;BME280;61036;53.224;6.554;2023-12-04T10:50:46;100645.31;;;1.26;100.00
72896;BME280;61036;53.224;6.554;2023-12-04T10:53:13;100641.50;;;1.11;100.00
72896;BME280;61036;53.224;6.554;2023-12-04T10:55:40;100646.94;;;1.08;100.00
72896;BME280;61036;53.224;6.554;2023-12-04T10:58:07;100638.19;;;1.05;100.00
72896;BME280;61036;53.224;6.554;2023-12-04T11:00:35;100636.34;;;1.07;100.00
72896;BME280;61036;53.224;6.554;2023-12-04T11:03:07;100637.31;;;1.28;100.00
72896;BME280;61036;53.224;6.554;2023-12-04T11:05:37;100632.59;;;1.34;100.00
72896;BME280;61036;53.224;6.554;2023-12-04T11:08:05;100634.81;;;1.23;100.00
72896;BME280;61036;53.224;6.554;2023-12-04T11:10:33;100632.41;;;1.17;100.00
72896;BME280;61036;53.224;6.554;2023-12-04T11:13:08;100631.00;;;1.30;100.00
72896;BME280;61036;53.224;6.554;2023-12-04T11:15:39;100631.38;;;1.43;100.00
72896;BME280;61036;53.224;6.554;2023-12-04T11:18:12;100623.78;;;1.34;100.00
72896;BME280;61036;53.224;6.554;2023-12-04T11:20:48;100623.75;;;1.56;100.00
72896;BME280;61036;53.224;6.554;2023-12-04T11:23:16;100618.03;;;1.87;100.00
72896;BME280;61036;53.224;6.554;2023-12-04T11:25:43;100624.78;;;1.74;100.00
72896;BME280;61036;53.224;6.554;2023-12-04T11:28:10;100616.69;;;1.77;100.00
72896;BME280;61036;53.224;6.554;2023-12-04T11:30:37;100627.19;;;1.59;100.00
72896;BME280;61036;53.224;6.554;2023-12-04T11:33:04;100629.13;;;1.76;100.00
72896;BME280;61036;53.224;6.554;2023-12-04T11:35:30;100627.06;;;1.63;100.00
72896;BME280;61036;53.224;6.554;2023-12-04T11:37:56;100618.00;;;1.67;100.00
72896;BME280;61036;53.224;6.554;2023-12-04T11:40:22;100621.19;;;1.54;100.00
72896;BME280;61036;53.224;6.554;2023-12-04T11:42:48;100610.72;;;1.72;100.00
72896;BME280;61036;53.224;6.554;2023-12-04T11:45:20;100619.13;;;1.61;100.00
72896;BME280;61036;53.224;6.554;2023-12-04T11:47:52;100614.50;;;1.66;100.00
72896;BME280;61036;53.224;6.554;2023-12-04T11:50:19;100612.09;;;1.60;100.00
72896;BME280;61036;53.224;6.554;2023-12-04T11:52:46;100610.09;;;1.65;100.00
72896;BME280;61036;53.224;6.554;2023-12-04T11:55:12;100619.28;;;1.56;100.00
72896;BME280;61036;53.224;6.554;2023-12-04T11:57:40;100624.53;;;1.59;100.00
72896;BME280;61036;53.224;6.554;2023-12-04T12:05:23;100608.72;;;1.77;100.00
72896;BME280;61036;53.224;6.554;2023-12-04T12:07:49;100609.94;;;1.68;100.00
72896;BME280;61036;53.224;6.554;2023-12-04T12:10:18;100601.34;;;1.63;100.00
72896;BME280;61036;53.224;6.554;2023-12-04T12:12:44;100606.00;;;1.56;100.00
72896;BME280;61036;53.224;6.554;2023-12-04T12:15:10;100605.09;;;1.57;100.00
72896;BME280;61036;53.224;6.554;2023-12-04T12:17:40;100598.81;;;1.60;100.00
72896;BME280;61036;53.224;6.554;2023-12-04T12:20:07;100603.13;;;1.63;100.00
72896;BME280;61036;53.224;6.554;2023-12-04T12:22:34;100588.09;;;1.62;100.00
72896;BME280;61036;53.224;6.554;2023-12-04T12:25:00;100583.38;;;1.68;100.00
72896;BME280;61036;53.224;6.554;2023-12-04T12:27:25;100589.88;;;1.61;100.00
72896;BME280;61036;53.224;6.554;2023-12-04T12:29:51;100587.91;;;1.66;100.00
72896;BME280;61036;53.224;6.554;2023-12-04T12:32:16;100594.41;;;1.59;100.00
72896;BME280;61036;53.224;6.554;2023-12-04T12:34:42;100586.63;;;1.54;100.00
72896;BME280;61036;53.224;6.554;2023-12-04T12:37:08;100587.06;;;1.66;100.00
72896;BME280;61036;53.224;6.554;2023-12-04T12:39:34;100578.41;;;1.60;100.00
72896;BME280;61036;53.224;6.554;2023-12-04T12:42:00;100581.38;;;1.53;100.00